Time;durP1;ratioP1;P1;durP2;ratioP2;P2;SDS_P1;SDS_P2;PMS_P1;PMS_P2;Temp;Humidity;BMP_temperature;BMP_pressure;BME280_temperature;BME280_humidity;BME280_pressure;Samples;Min_cycle;Max_cycle;Signal;HPM_P1;HPM_P2
2024/02/05 00:01:23;;;;;;;;;;;;;;;;;;4147769;28;20461;-55
2024/02/05 00:03:24;;;;;;;;;;;;;;;;;;4147530;28;20359;-55
2024/02/05 00:05:26;;;;;;;;;;;;;;;;;;4147755;28;20369;-55
2024/02/05 00:07:28;;;;;;;;;;;;;;;;;;4147650;28;19921;-55
2024/02/05 00:09:31;;;;;;;;;;;;;;;;;;4147959;28;19921;-55
2024/02/05 00:11:33;;;;;;;;;;;;;;;;;;4147734;28;19921;-55
2024/02/05 00:13:34;;;;;;;;;;;;;;;;;;4147734;28;19925;-56
2024/02/05 00:15:35;;;;;;;;;;;;;;;;;;4147925;28;19925;-54
2024/02/05 00:17:37;;;;;;;;;;;;;;;;;;4147624;28;19932;-54
2024/02/05 00:19:38;;;;;;;;;;;;;;;;;;4149028;28;19948;-55
2024/02/05 00:21:40;;;;;;;;;;;;;;;;;;4150791;28;19948;-55
2024/02/05 00:23:42;;;;;;;;;;;;;;;;;;4150630;28;19944;-55
2024/02/05 00:25:43;;;;;;;;;;;;;;;;;;4151010;28;20369;-55
2024/02/05 00:27:45;;;;;;;;;;;;;;;;;;4150442;28;19925;-55
2024/02/05 00:29:46;;;;;;;;;;;;;;;;;;4150411;28;19925;-55
2024/02/05 00:31:48;;;;;;;;;;;;;;;;;;4150370;28;19971;-55
2024/02/05 00:33:49;;;;;;;;;;;;;;;;;;4150622;28;20664;-54
2024/02/05 00:35:51;;;;;;;;;;;;;;;;;;4150453;28;20380;-54
2024/02/05 00:37:53;;;;;;;;;;;;;;;;;;4150397;28;19925;-54
2024/02/05 00:39:54;;;;;;;;;;;;;;;;;;4150222;28;19996;-56
2024/02/05 00:41:56;;;;;;;;;;;;;;;;;;4150494;28;19952;-55
2024/02/05 00:43:57;;;;;;;;;;;;;;;;;;4150250;28;19960;-55
2024/02/05 00:45:59;;;;;;;;;;;;;;;;;;4165042;28;19928;-55
2024/02/05 00:48:00;;;;;;;;;;;;;;;;;;4166789;28;20292;-56
2024/02/05 00:50:02;;;;;;;;;;;;;;;;;;4166234;28;19921;-55
2024/02/05 00:52:04;;;;;;;;;;;;;;;;;;4163414;28;19925;-55
2024/02/05 00:54:05;;;;;;;;;;;;;;;;;;4150363;28;19976;-55
2024/02/05 00:56:06;;;;;;;;;;;;;;;;;;4149951;28;20367;-55
2024/02/05 00:58:08;;;;;;;;;;;;;;;;;;4149808;28;19921;-55
2024/02/05 01:00:09;;;;;;;;;;;;;;;;;;4150156;28;19925;-55
2024/02/05 01:02:12;;;;;;;;;;;;;;;;;;4149994;28;19929;-54
2024/02/05 01:04:13;;;;;;;;;;;;;;;;;;4149773;28;19921;-55
2024/02/05 01:06:15;;;;;;;;;;;;;;;;;;4150138;28;20385;-56
2024/02/05 01:08:17;;;;;;;;;;;;;;;;;;4150044;28;19932;-55
2024/02/05 01:10:19;;;;;;;;;;;;;;;;;;4149677;28;19929;-55
2024/02/05 01:12:21;;;;;;;;;;;;;;;;;;4149901;28;20464;-55
2024/02/05 01:14:22;;;;;;;;;;;;;;;;;;4149780;28;20344;-55
2024/02/05 01:16:23;;;;;;;;;;;;;;;;;;4149709;28;19969;-55
2024/02/05 01:18:25;;;;;;;;;;;;;;;;;;4149819;28;20381;-55
2024/02/05 01:20:27;;;;;;;;;;;;;;;;;;4149664;28;19991;-54
2024/02/05 01:22:28;;;;;;;;;;;;;;;;;;4149314;28;20365;-55
2024/02/05 01:24:30;;;;;;;;;;;;;;;;;;4148286;28;19925;-55
2024/02/05 01:26:31;;;;;;;;;;;;;;;;;;4148067;28;19929;-55
2024/02/05 01:28:32;;;;;;;;;;;;;;;;;;4148628;28;19979;-55
2024/02/05 01:30:34;;;;;;;;;;;;;;;;;;4146866;28;19937;-55
2024/02/05 01:32:35;;;;;;;;;;;;;;;;;;4148819;28;19960;-55
2024/02/05 01:34:37;;;;;;;;;;;;;;;;;;4147726;28;20392;-54
2024/02/05 01:36:38;;;;;;;;;;;;;;;;;;4149126;28;20301;-55
2024/02/05 01:38:40;;;;;;;;;;;;;;;;;;4149030;28;19929;-55
2024/02/05 01:40:41;;;;;;;;;;;;;;;;;;4151315;28;19937;-54
2024/02/05 01:42:43;;;;;;;;;;;;;;;;;;4165178;28;19948;-54
2024/02/05 01:44:44;;;;;;;;;;;;;;;;;;4165632;28;20397;-55
2024/02/05 01:46:46;;;;;;;;;;;;;;;;;;4165745;28;20344;-54
2024/02/05 01:48:47;;;;;;;;;;;;;;;;;;4165627;28;20442;-55
2024/02/05 01:50:49;;;;;;;;;;;;;;;;;;4165500;28;19964;-55
2024/02/05 01:52:51;;;;;;;;;;;;;;;;;;4156002;28;20297;-55
2024/02/05 01:54:52;;;;;;;;;;;;;;;;;;4149614;28;19921;-55
2024/02/05 01:56:54;;;;;;;;;;;;;;;;;;4149393;28;19971;-55
2024/02/05 01:58:55;;;;;;;;;;;;;;;;;;4148117;28;20281;-55
2024/02/05 02:00:57;;;;;;;;;;;;;;;;;;4149254;28;20012;-54
2024/02/05 02:02:58;;;;;;;;;;;;;;;;;;4148739;28;20014;-55
2024/02/05 02:04:59;;;;;;;;;;;;;;;;;;4149021;28;20258;-56
2024/02/05 02:07:01;;;;;;;;;;;;;;;;;;4149508;28;19968;-55
2024/02/05 02:09:05;;;;;;;;;;;;;;;;;;4148924;28;19925;-55
2024/02/05 02:11:07;;;;;;;;;;;;;;;;;;4148929;28;19972;-55
2024/02/05 02:13:08;;;;;;;;;;;;;;;;;;4148956;28;19928;-55
2024/02/05 02:15:11;;;;;;;;;;;;;;;;;;4149074;28;20417;-55
2024/02/05 02:17:13;;;;;;;;;;;;;;;;;;4149212;28;20004;-55
2024/02/05 02:19:14;;;;;;;;;;;;;;;;;;4148971;28;19968;-55
2024/02/05 02:21:16;;;;;;;;;;;;;;;;;;4149149;28;20004;-55
2024/02/05 02:23:18;;;;;;;;;;;;;;;;;;4148693;28;19921;-55
2024/02/05 02:25:20;;;;;;;;;;;;;;;;;;4148778;28;19975;-55
2024/02/05 02:27:21;;;;;;;;;;;;;;;;;;4148723;28;19961;-56
2024/02/05 02:29:23;;;;;;;;;;;;;;;;;;4148550;28;19926;-55
2024/02/05 02:31:24;;;;;;;;;;;;;;;;;;4148763;28;19929;-55
2024/02/05 02:33:26;;;;;;;;;;;;;;;;;;4148689;28;20412;-55
2024/02/05 02:35:27;;;;;;;;;;;;;;;;;;4148513;28;19921;-55
2024/02/05 02:37:29;;;;;;;;;;;;;;;;;;4155089;28;19935;-55
2024/02/05 02:39:31;;;;;;;;;;;;;;;;;;4165348;28;20011;-55
2024/02/05 02:41:32;;;;;;;;;;;;;;;;;;4155023;28;19994;-54
2024/02/05 02:43:34;;;;;;;;;;;;;;;;;;4162795;28;19964;-55
2024/02/05 02:45:35;;;;;;;;;;;;;;;;;;4164836;28;19925;-55
2024/02/05 02:47:37;;;;;;;;;;;;;;;;;;4164984;28;20204;-56
2024/02/05 02:49:38;;;;;;;;;;;;;;;;;;4164578;28;20331;-55
2024/02/05 02:51:40;;;;;;;;;;;;;;;;;;4164986;28;19921;-55
2024/02/05 02:53:42;;;;;;;;;;;;;;;;;;4132257;28;19933;-55
2024/02/05 02:55:43;;;;;;;;;;;;;;;;;;4132319;28;19921;-55
2024/02/05 02:57:44;;;;;;;;;;;;;;;;;;4138645;28;19953;-54
2024/02/05 02:59:46;;;;;;;;;;;;;;;;;;4148392;28;19927;-55
2024/02/05 03:01:48;;;;;;;;;;;;;;;;;;4148227;28;19921;-55
2024/02/05 03:03:49;;;;;;;;;;;;;;;;;;4147886;28;19925;-55
2024/02/05 03:05:51;;;;;;;;;;;;;;;;;;4148517;28;19926;-55
2024/02/05 03:07:53;;;;;;;;;;;;;;;;;;4148245;28;19929;-55
2024/02/05 03:09:55;;;;;;;;;;;;;;;;;;4148282;28;20008;-55
2024/02/05 03:11:56;;;;;;;;;;;;;;;;;;4148163;28;19921;-54
2024/02/05 03:13:57;;;;;;;;;;;;;;;;;;4148500;28;19925;-56
2024/02/05 03:15:59;;;;;;;;;;;;;;;;;;4148139;28;20015;-56
2024/02/05 03:18:01;;;;;;;;;;;;;;;;;;4147028;28;19928;-56
2024/02/05 03:20:02;;;;;;;;;;;;;;;;;;4147943;28;19925;-56
2024/02/05 03:22:04;;;;;;;;;;;;;;;;;;4148108;28;19926;-55
2024/02/05 03:24:06;;;;;;;;;;;;;;;;;;4148155;28;19925;-55
2024/02/05 03:26:08;;;;;;;;;;;;;;;;;;4148089;28;20447;-55
2024/02/05 03:28:10;;;;;;;;;;;;;;;;;;4148150;28;20293;-56
2024/02/05 03:30:12;;;;;;;;;;;;;;;;;;4148002;28;20288;-55
2024/02/05 03:32:13;;;;;;;;;;;;;;;;;;4146632;28;19922;-56
2024/02/05 03:34:16;;;;;;;;;;;;;;;;;;4148172;28;19921;-55
2024/02/05 03:36:18;;;;;;;;;;;;;;;;;;4148216;28;19922;-56
2024/02/05 03:38:20;;;;;;;;;;;;;;;;;;4147968;28;20356;-56
2024/02/05 03:40:21;;;;;;;;;;;;;;;;;;4147968;28;20024;-55
2024/02/05 03:42:23;;;;;;;;;;;;;;;;;;4148041;28;19944;-56
2024/02/05 03:44:25;;;;;;;;;;;;;;;;;;4147967;28;19928;-56
2024/02/05 03:46:26;;;;;;;;;;;;;;;;;;4147940;28;19968;-56
2024/02/05 03:48:28;;;;;;;;;;;;;;;;;;4148251;28;20016;-56
2024/02/05 03:50:31;;;;;;;;;;;;;;;;;;4147605;28;19933;-54
2024/02/05 03:52:32;;;;;;;;;;;;;;;;;;4147934;28;19932;-56
2024/02/05 03:54:34;;;;;;;;;;;;;;;;;;4149624;28;20468;-56
2024/02/05 03:56:37;;;;;;;;;;;;;;;;;;4151020;28;19959;-56
2024/02/05 03:58:38;;;;;;;;;;;;;;;;;;4150759;28;20407;-57
2024/02/05 04:00:39;;;;;;;;;;;;;;;;;;4150735;28;19983;-56
2024/02/05 04:02:41;;;;;;;;;;;;;;;;;;4150816;28;19933;-55
2024/02/05 04:04:42;;;;;;;;;;;;;;;;;;4150811;28;19934;-56
2024/02/05 04:06:44;;;;;;;;;;;;;;;;;;4150862;28;20016;-55
2024/02/05 04:08:46;;;;;;;;;;;;;;;;;;4150731;28;19928;-56
2024/02/05 04:10:47;;;;;;;;;;;;;;;;;;4150797;28;19921;-56
2024/02/05 04:12:49;;;;;;;;;;;;;;;;;;4150767;28;19971;-56
2024/02/05 04:14:50;;;;;;;;;;;;;;;;;;4150960;28;20157;-57
2024/02/05 04:16:52;;;;;;;;;;;;;;;;;;4150673;28;20384;-55
2024/02/05 04:18:53;;;;;;;;;;;;;;;;;;4151137;28;20301;-57
2024/02/05 04:20:57;;;;;;;;;;;;;;;;;;4150676;28;19921;-55
2024/02/05 04:22:58;;;;;;;;;;;;;;;;;;4150675;28;19921;-54
2024/02/05 04:25:02;;;;;;;;;;;;;;;;;;4150516;28;20311;-57
2024/02/05 04:27:03;;;;;;;;;;;;;;;;;;4150794;28;19925;-56
2024/02/05 04:29:13;;;;;;;;;;;;;;;;;;4150814;28;19980;-57
2024/02/05 04:31:15;;;;;;;;;;;;;;;;;;4150301;28;19925;-56
2024/02/05 04:33:16;;;;;;;;;;;;;;;;;;4150624;28;19925;-55
2024/02/05 04:35:18;;;;;;;;;;;;;;;;;;4150454;28;19925;-55
2024/02/05 04:37:21;;;;;;;;;;;;;;;;;;4150434;28;20400;-56
2024/02/05 04:39:22;;;;;;;;;;;;;;;;;;4150553;28;20262;-55
2024/02/05 04:41:24;;;;;;;;;;;;;;;;;;4150289;28;19925;-55
2024/02/05 04:43:25;;;;;;;;;;;;;;;;;;4150538;28;19976;-56
2024/02/05 04:45:27;;;;;;;;;;;;;;;;;;4150459;28;20329;-55
2024/02/05 04:47:28;;;;;;;;;;;;;;;;;;4150249;28;19921;-55
2024/02/05 04:49:30;;;;;;;;;;;;;;;;;;4150266;28;20375;-55
2024/02/05 04:51:31;;;;;;;;;;;;;;;;;;4150059;28;19926;-56
2024/02/05 04:53:33;;;;;;;;;;;;;;;;;;4150461;28;19921;-55
2024/02/05 04:55:36;;;;;;;;;;;;;;;;;;4150137;28;19933;-56
2024/02/05 04:57:46;;;;;;;;;;;;;;;;;;4149798;28;19928;-55
2024/02/05 04:59:48;;;;;;;;;;;;;;;;;;4148807;28;19921;-55
2024/02/05 05:01:49;;;;;;;;;;;;;;;;;;4149983;28;19967;-55
2024/02/05 05:03:51;;;;;;;;;;;;;;;;;;4149765;28;19928;-55
2024/02/05 05:05:52;;;;;;;;;;;;;;;;;;4148688;28;19925;-55
2024/02/05 05:07:54;;;;;;;;;;;;;;;;;;4149846;28;20728;-54
2024/02/05 05:09:55;;;;;;;;;;;;;;;;;;4149743;28;19921;-55
2024/02/05 05:11:57;;;;;;;;;;;;;;;;;;4146034;28;19921;-55
2024/02/05 05:13:58;;;;;;;;;;;;;;;;;;4149677;28;19955;-55
2024/02/05 05:16:00;;;;;;;;;;;;;;;;;;4149996;28;19929;-55
2024/02/05 05:18:01;;;;;;;;;;;;;;;;;;4149081;28;20020;-55
2024/02/05 05:20:03;;;;;;;;;;;;;;;;;;4149904;28;19944;-55
2024/02/05 05:22:04;;;;;;;;;;;;;;;;;;4149902;28;19936;-54
2024/02/05 05:24:06;;;;;;;;;;;;;;;;;;4149886;28;20044;-55
2024/02/05 05:26:07;;;;;;;;;;;;;;;;;;4149547;28;19921;-55
2024/02/05 05:28:09;;;;;;;;;;;;;;;;;;4149472;28;19940;-55
2024/02/05 05:30:10;;;;;;;;;;;;;;;;;;4149674;28;20419;-55
2024/02/05 05:32:12;;;;;;;;;;;;;;;;;;4149393;28;20348;-55
2024/02/05 05:34:13;;;;;;;;;;;;;;;;;;4148412;28;19925;-55
2024/02/05 05:36:15;;;;;;;;;;;;;;;;;;4149525;28;19927;-55
2024/02/05 05:38:16;;;;;;;;;;;;;;;;;;4147793;28;19925;-54
2024/02/05 05:40:18;;;;;;;;;;;;;;;;;;4149450;28;19925;-55
2024/02/05 05:42:20;;;;;;;;;;;;;;;;;;4149450;28;20016;-55
2024/02/05 05:44:22;;;;;;;;;;;;;;;;;;4148630;28;19960;-56
2024/02/05 05:46:23;;;;;;;;;;;;;;;;;;4149226;28;19922;-55
2024/02/05 05:48:25;;;;;;;;;;;;;;;;;;4149242;28;19922;-56
2024/02/05 05:50:27;;;;;;;;;;;;;;;;;;4149145;28;20273;-56
2024/02/05 05:52:30;;;;;;;;;;;;;;;;;;4149015;28;20325;-55
2024/02/05 05:54:31;;;;;;;;;;;;;;;;;;4149153;28;19925;-55
2024/02/05 05:56:33;;;;;;;;;;;;;;;;;;4149199;28;19972;-57
2024/02/05 05:58:34;;;;;;;;;;;;;;;;;;4148922;28;19936;-57
2024/02/05 06:00:36;;;;;;;;;;;;;;;;;;4148891;28;19921;-56
2024/02/05 06:02:37;;;;;;;;;;;;;;;;;;4148602;28;19957;-56
2024/02/05 06:04:38;;;;;;;;;;;;;;;;;;4147496;28;19967;-55
2024/02/05 06:06:40;;;;;;;;;;;;;;;;;;4148087;28;20020;-56
2024/02/05 06:08:42;;;;;;;;;;;;;;;;;;4143523;28;19944;-56
2024/02/05 06:10:43;;;;;;;;;;;;;;;;;;4148697;28;19945;-57
2024/02/05 06:12:45;;;;;;;;;;;;;;;;;;4148845;28;20357;-55
2024/02/05 06:14:47;;;;;;;;;;;;;;;;;;4148933;28;19929;-56
2024/02/05 06:16:48;;;;;;;;;;;;;;;;;;4148340;28;19928;-57
2024/02/05 06:18:53;;;;;;;;;;;;;;;;;;4148327;28;20401;-59
2024/02/05 06:20:54;;;;;;;;;;;;;;;;;;4148474;28;20012;-55
2024/02/05 06:22:56;;;;;;;;;;;;;;;;;;4148624;28;19921;-55
2024/02/05 06:24:57;;;;;;;;;;;;;;;;;;4148390;28;19932;-60
2024/02/05 06:27:02;;;;;;;;;;;;;;;;;;4148603;28;19921;-61
2024/02/05 06:29:04;;;;;;;;;;;;;;;;;;4147345;28;20360;-61
2024/02/05 06:31:05;;;;;;;;;;;;;;;;;;4147716;28;20393;-60
2024/02/05 06:33:07;;;;;;;;;;;;;;;;;;4145251;28;19972;-60
2024/02/05 06:35:08;;;;;;;;;;;;;;;;;;4134041;28;19925;-60
2024/02/05 06:37:10;;;;;;;;;;;;;;;;;;4142657;28;19921;-61
2024/02/05 06:39:13;;;;;;;;;;;;;;;;;;4132398;28;19929;-61
2024/02/05 06:41:14;;;;;;;;;;;;;;;;;;4132483;28;19926;-61
2024/02/05 06:43:16;;;;;;;;;;;;;;;;;;4132107;28;19921;-61
2024/02/05 06:45:17;;;;;;;;;;;;;;;;;;4132092;28;19988;-60
2024/02/05 06:47:19;;;;;;;;;;;;;;;;;;4131670;28;19922;-60
2024/02/05 06:49:22;;;;;;;;;;;;;;;;;;4131976;28;19929;-60
2024/02/05 06:51:23;;;;;;;;;;;;;;;;;;4132221;28;19921;-60
2024/02/05 06:53:25;;;;;;;;;;;;;;;;;;4146040;28;20004;-62
2024/02/05 06:55:26;;;;;;;;;;;;;;;;;;4147021;28;19931;-60
2024/02/05 06:57:28;;;;;;;;;;;;;;;;;;4147971;28;20048;-60
2024/02/05 06:59:29;;;;;;;;;;;;;;;;;;4148387;28;20285;-59
2024/02/05 07:01:31;;;;;;;;;;;;;;;;;;4148146;28;19948;-59
2024/02/05 07:03:32;;;;;;;;;;;;;;;;;;4148092;28;19925;-59
2024/02/05 07:05:36;;;;;;;;;;;;;;;;;;4148171;28;19925;-59
2024/02/05 07:07:37;;;;;;;;;;;;;;;;;;4148462;28;19926;-59
2024/02/05 07:09:39;;;;;;;;;;;;;;;;;;4148279;28;19921;-60
2024/02/05 07:11:40;;;;;;;;;;;;;;;;;;4148389;28;19928;-59
2024/02/05 07:13:42;;;;;;;;;;;;;;;;;;4148294;28;19976;-59
2024/02/05 07:15:43;;;;;;;;;;;;;;;;;;4148365;28;19922;-59
2024/02/05 07:17:45;;;;;;;;;;;;;;;;;;4148297;28;19963;-59
2024/02/05 07:19:47;;;;;;;;;;;;;;;;;;4161855;28;20393;-59
2024/02/05 07:21:48;;;;;;;;;;;;;;;;;;4164429;28;19921;-59
2024/02/05 07:23:50;;;;;;;;;;;;;;;;;;4164508;28;20397;-59
2024/02/05 07:25:52;;;;;;;;;;;;;;;;;;4164400;28;19928;-59
2024/02/05 07:27:53;;;;;;;;;;;;;;;;;;4159841;28;20438;-59
2024/02/05 07:29:55;;;;;;;;;;;;;;;;;;4149524;28;19929;-59
2024/02/05 07:31:56;;;;;;;;;;;;;;;;;;4151377;28;19921;-59
2024/02/05 07:33:58;;;;;;;;;;;;;;;;;;4151406;28;20333;-59
2024/02/05 07:35:59;;;;;;;;;;;;;;;;;;4151599;28;19963;-59
2024/02/05 07:38:00;;;;;;;;;;;;;;;;;;4151202;28;19925;-59
2024/02/05 07:40:06;;;;;;;;;;;;;;;;;;4150680;28;19929;-59
2024/02/05 07:42:07;;;;;;;;;;;;;;;;;;4151344;28;19921;-59
2024/02/05 07:44:09;;;;;;;;;;;;;;;;;;4151144;28;19921;-59
2024/02/05 07:46:10;;;;;;;;;;;;;;;;;;4151261;28;19928;-59
2024/02/05 07:48:12;;;;;;;;;;;;;;;;;;4151224;28;19952;-60
2024/02/05 07:50:13;;;;;;;;;;;;;;;;;;4151155;28;20330;-59
2024/02/05 07:52:15;;;;;;;;;;;;;;;;;;4151034;28;19929;-59
2024/02/05 07:54:16;;;;;;;;;;;;;;;;;;4151339;28;19929;-59
2024/02/05 07:56:18;;;;;;;;;;;;;;;;;;4151119;28;20024;-59
2024/02/05 07:58:20;;;;;;;;;;;;;;;;;;4150758;28;19929;-59
2024/02/05 08:00:22;;;;;;;;;;;;;;;;;;4150949;28;20439;-59
2024/02/05 08:02:25;;;;;;;;;;;;;;;;;;4150886;28;19944;-59
2024/02/05 08:04:27;;;;;;;;;;;;;;;;;;4150826;28;20004;-59
2024/02/05 08:06:29;;;;;;;;;;;;;;;;;;4150954;28;20377;-59
2024/02/05 08:08:31;;;;;;;;;;;;;;;;;;4149848;28;19928;-60
2024/02/05 08:10:34;;;;;;;;;;;;;;;;;;4150946;28;20285;-61
2024/02/05 08:12:36;;;;;;;;;;;;;;;;;;4150744;28;19922;-61
2024/02/05 08:14:37;;;;;;;;;;;;;;;;;;4154450;28;19921;-61
2024/02/05 08:16:39;;;;;;;;;;;;;;;;;;4167114;28;20265;-61
2024/02/05 08:18:40;;;;;;;;;;;;;;;;;;4167334;28;20017;-60
2024/02/05 08:20:42;;;;;;;;;;;;;;;;;;4167101;28;20043;-61
2024/02/05 08:22:45;;;;;;;;;;;;;;;;;;4167003;28;20285;-61
2024/02/05 08:24:47;;;;;;;;;;;;;;;;;;4167106;28;19927;-60
2024/02/05 08:26:48;;;;;;;;;;;;;;;;;;4166887;28;19921;-60
2024/02/05 08:28:50;;;;;;;;;;;;;;;;;;4154469;28;19952;-61
2024/02/05 08:30:51;;;;;;;;;;;;;;;;;;4150622;28;20360;-61
2024/02/05 08:32:53;;;;;;;;;;;;;;;;;;4150464;28;19921;-61
2024/02/05 08:34:55;;;;;;;;;;;;;;;;;;4150581;28;20374;-61
2024/02/05 08:36:57;;;;;;;;;;;;;;;;;;4150403;28;19968;-61
2024/02/05 08:38:58;;;;;;;;;;;;;;;;;;4150417;28;19979;-60
2024/02/05 08:41:00;;;;;;;;;;;;;;;;;;4150312;28;19960;-61
2024/02/05 08:43:01;;;;;;;;;;;;;;;;;;4150579;28;19925;-61
2024/02/05 08:45:03;;;;;;;;;;;;;;;;;;4150054;28;19926;-61
2024/02/05 08:47:06;;;;;;;;;;;;;;;;;;4150277;28;19936;-61
2024/02/05 08:49:07;;;;;;;;;;;;;;;;;;4150220;28;20369;-61
2024/02/05 08:51:09;;;;;;;;;;;;;;;;;;4150120;28;19956;-60
2024/02/05 08:53:10;;;;;;;;;;;;;;;;;;4150195;28;19921;-60
2024/02/05 08:55:13;;;;;;;;;;;;;;;;;;4150113;28;19921;-61
2024/02/05 08:57:14;;;;;;;;;;;;;;;;;;4149874;28;19929;-61
2024/02/05 08:59:16;;;;;;;;;;;;;;;;;;4150079;28;19932;-60
2024/02/05 09:01:17;;;;;;;;;;;;;;;;;;4150108;28;20335;-61
2024/02/05 09:03:21;;;;;;;;;;;;;;;;;;4149832;28;19921;-61
2024/02/05 09:05:23;;;;;;;;;;;;;;;;;;4149091;28;19925;-61
2024/02/05 09:07:34;;;;;;;;;;;;;;;;;;4149944;28;19972;-60
2024/02/05 09:09:39;;;;;;;;;;;;;;;;;;4149846;28;19929;-60
2024/02/05 09:11:41;;;;;;;;;;;;;;;;;;4149939;28;19975;-61
2024/02/05 09:13:49;;;;;;;;;;;;;;;;;;4150019;28;19926;-61
2024/02/05 09:15:51;;;;;;;;;;;;;;;;;;4149999;28;20405;-61
2024/02/05 09:17:52;;;;;;;;;;;;;;;;;;4149893;28;19944;-60
2024/02/05 09:19:54;;;;;;;;;;;;;;;;;;4150005;28;19921;-59
2024/02/05 09:21:56;;;;;;;;;;;;;;;;;;4149800;28;19933;-59
2024/02/05 09:23:57;;;;;;;;;;;;;;;;;;4149791;28;19922;-60
2024/02/05 09:25:59;;;;;;;;;;;;;;;;;;4149680;28;19922;-59
2024/02/05 09:28:00;;;;;;;;;;;;;;;;;;4149524;28;19922;-60
2024/02/05 09:30:04;;;;;;;;;;;;;;;;;;4149574;28;20443;-59
2024/02/05 09:32:07;;;;;;;;;;;;;;;;;;4149849;28;19928;-59
2024/02/05 09:34:08;;;;;;;;;;;;;;;;;;4149682;28;19921;-59
2024/02/05 09:36:10;;;;;;;;;;;;;;;;;;4149525;28;20381;-60
2024/02/05 09:38:12;;;;;;;;;;;;;;;;;;4148296;28;19921;-59
2024/02/05 09:40:13;;;;;;;;;;;;;;;;;;4149422;28;19964;-59
2024/02/05 09:42:15;;;;;;;;;;;;;;;;;;4149439;28;19921;-60
2024/02/05 09:44:17;;;;;;;;;;;;;;;;;;4149464;28;19944;-59
2024/02/05 09:46:18;;;;;;;;;;;;;;;;;;4149291;28;19921;-59
2024/02/05 09:48:19;;;;;;;;;;;;;;;;;;4149895;28;19926;-60
2024/02/05 09:50:30;;;;;;;;;;;;;;;;;;4149042;28;19928;-59
2024/02/05 09:52:32;;;;;;;;;;;;;;;;;;4148634;28;19928;-59
2024/02/05 09:54:33;;;;;;;;;;;;;;;;;;4149229;28;19925;-60
2024/02/05 09:56:35;;;;;;;;;;;;;;;;;;4149147;28;20316;-59
2024/02/05 09:58:36;;;;;;;;;;;;;;;;;;4149040;28;19921;-59
2024/02/05 10:00:39;;;;;;;;;;;;;;;;;;4149123;28;19921;-59
2024/02/05 10:02:41;;;;;;;;;;;;;;;;;;4149223;28;19968;-59
2024/02/05 10:04:42;;;;;;;;;;;;;;;;;;4148922;28;19928;-59
2024/02/05 10:06:44;;;;;;;;;;;;;;;;;;4149794;28;20015;-59
2024/02/05 10:08:45;;;;;;;;;;;;;;;;;;4165439;28;20419;-59
2024/02/05 10:10:47;;;;;;;;;;;;;;;;;;4165379;28;19951;-59
2024/02/05 10:12:48;;;;;;;;;;;;;;;;;;4165232;28;20262;-59
2024/02/05 10:14:50;;;;;;;;;;;;;;;;;;4165533;28;19929;-59
2024/02/05 10:16:52;;;;;;;;;;;;;;;;;;4165186;28;19956;-60
2024/02/05 10:18:53;;;;;;;;;;;;;;;;;;4165144;28;19928;-59
2024/02/05 10:20:55;;;;;;;;;;;;;;;;;;4165369;28;19921;-60
2024/02/05 10:22:56;;;;;;;;;;;;;;;;;;4165140;28;19967;-61
2024/02/05 10:25:01;;;;;;;;;;;;;;;;;;4165390;28;20008;-61
2024/02/05 10:27:02;;;;;;;;;;;;;;;;;;4165111;28;19921;-60
2024/02/05 10:29:04;;;;;;;;;;;;;;;;;;4150797;28;19925;-61
2024/02/05 10:31:05;;;;;;;;;;;;;;;;;;4148625;28;19952;-61
2024/02/05 10:33:07;;;;;;;;;;;;;;;;;;4148821;28;19928;-61
2024/02/05 10:35:09;;;;;;;;;;;;;;;;;;4148595;28;20501;-61
2024/02/05 10:37:11;;;;;;;;;;;;;;;;;;4148878;28;19925;-61
2024/02/05 10:39:13;;;;;;;;;;;;;;;;;;4148787;28;19972;-61
2024/02/05 10:41:14;;;;;;;;;;;;;;;;;;4148631;28;19921;-61
2024/02/05 10:43:20;;;;;;;;;;;;;;;;;;4148555;28;20482;-60
2024/02/05 10:45:21;;;;;;;;;;;;;;;;;;4148113;28;19928;-61
2024/02/05 10:47:24;;;;;;;;;;;;;;;;;;4148624;28;19925;-61
2024/02/05 10:49:25;;;;;;;;;;;;;;;;;;4151604;28;20031;-60
2024/02/05 10:51:27;;;;;;;;;;;;;;;;;;4151464;28;20296;-60
2024/02/05 10:53:29;;;;;;;;;;;;;;;;;;4150069;28;20443;-61
2024/02/05 10:55:30;;;;;;;;;;;;;;;;;;4156612;28;20340;-60
2024/02/05 10:57:32;;;;;;;;;;;;;;;;;;4157196;28;19921;-60
2024/02/05 10:59:33;;;;;;;;;;;;;;;;;;4164426;28;19921;-60
2024/02/05 11:01:36;;;;;;;;;;;;;;;;;;4161343;28;19921;-60
2024/02/05 11:03:38;;;;;;;;;;;;;;;;;;4159002;28;19971;-60
2024/02/05 11:05:40;;;;;;;;;;;;;;;;;;4158555;28;19921;-61
2024/02/05 11:07:42;;;;;;;;;;;;;;;;;;4151808;28;19922;-60
2024/02/05 11:09:43;;;;;;;;;;;;;;;;;;4160148;28;19921;-60
2024/02/05 11:11:45;;;;;;;;;;;;;;;;;;4155466;28;20388;-61
2024/02/05 11:13:46;;;;;;;;;;;;;;;;;;4148338;28;19930;-60
2024/02/05 11:15:48;;;;;;;;;;;;;;;;;;4157806;28;19929;-61
2024/02/05 11:17:49;;;;;;;;;;;;;;;;;;4151053;28;19925;-61
2024/02/05 11:19:51;;;;;;;;;;;;;;;;;;4148137;28;19976;-60
2024/02/05 11:21:52;;;;;;;;;;;;;;;;;;4149203;28;19922;-61
2024/02/05 11:23:56;;;;;;;;;;;;;;;;;;4149177;28;20453;-60
2024/02/05 11:25:58;;;;;;;;;;;;;;;;;;4156567;28;19971;-61
2024/02/05 11:28:00;;;;;;;;;;;;;;;;;;4153014;28;20385;-61
2024/02/05 11:30:03;;;;;;;;;;;;;;;;;;4150590;28;19921;-61
2024/02/05 11:32:06;;;;;;;;;;;;;;;;;;4152165;28;19970;-61
2024/02/05 11:34:10;;;;;;;;;;;;;;;;;;4163718;28;19925;-61
2024/02/05 11:36:12;;;;;;;;;;;;;;;;;;4157242;28;19921;-61
2024/02/05 11:38:14;;;;;;;;;;;;;;;;;;4162663;28;20290;-60
2024/02/05 11:40:16;;;;;;;;;;;;;;;;;;4160991;28;19921;-61
2024/02/05 11:42:17;;;;;;;;;;;;;;;;;;4162685;28;19957;-60
2024/02/05 11:44:18;;;;;;;;;;;;;;;;;;4147978;28;19980;-61
2024/02/05 11:46:20;;;;;;;;;;;;;;;;;;4148974;28;19921;-61
2024/02/05 11:48:22;;;;;;;;;;;;;;;;;;4131667;28;19988;-61
2024/02/05 11:50:24;;;;;;;;;;;;;;;;;;4137281;28;19935;-61
2024/02/05 11:52:26;;;;;;;;;;;;;;;;;;4149942;28;19921;-60
2024/02/05 11:54:27;;;;;;;;;;;;;;;;;;4142635;28;19933;-60
2024/02/05 11:56:29;;;;;;;;;;;;;;;;;;4145321;28;19931;-61
2024/02/05 11:58:30;;;;;;;;;;;;;;;;;;4149436;28;19948;-61
2024/02/05 12:00:32;;;;;;;;;;;;;;;;;;4136253;28;19921;-61
2024/02/05 12:02:34;;;;;;;;;;;;;;;;;;4145435;28;19921;-61
2024/02/05 12:04:38;;;;;;;;;;;;;;;;;;4144482;28;20292;-61
2024/02/05 12:06:40;;;;;;;;;;;;;;;;;;4145403;28;19933;-61
2024/02/05 12:08:41;;;;;;;;;;;;;;;;;;4147772;28;19921;-61
2024/02/05 12:10:43;;;;;;;;;;;;;;;;;;4147988;28;19976;-61
2024/02/05 12:12:44;;;;;;;;;;;;;;;;;;4148711;28;19925;-61
2024/02/05 12:14:46;;;;;;;;;;;;;;;;;;4155108;28;19956;-61
2024/02/05 12:16:47;;;;;;;;;;;;;;;;;;4152036;28;19929;-61
2024/02/05 12:18:49;;;;;;;;;;;;;;;;;;4144425;28;19965;-61
2024/02/05 12:20:53;;;;;;;;;;;;;;;;;;4142318;28;20005;-61
2024/02/05 12:22:56;;;;;;;;;;;;;;;;;;4145535;28;19921;-61
2024/02/05 12:24:58;;;;;;;;;;;;;;;;;;4139766;28;19933;-61
2024/02/05 12:26:59;;;;;;;;;;;;;;;;;;4150528;28;20362;-61
2024/02/05 12:29:01;;;;;;;;;;;;;;;;;;4149936;28;20293;-61
2024/02/05 12:31:02;;;;;;;;;;;;;;;;;;4150677;28;19932;-61
2024/02/05 12:33:04;;;;;;;;;;;;;;;;;;4150474;28;19932;-60
2024/02/05 12:35:05;;;;;;;;;;;;;;;;;;4150530;28;19929;-61
2024/02/05 12:37:07;;;;;;;;;;;;;;;;;;4150547;28;19925;-61
2024/02/05 12:39:09;;;;;;;;;;;;;;;;;;4150283;28;20308;-61
2024/02/05 12:41:10;;;;;;;;;;;;;;;;;;4144201;28;19921;-60
2024/02/05 12:43:12;;;;;;;;;;;;;;;;;;4150356;28;19928;-61
2024/02/05 12:45:15;;;;;;;;;;;;;;;;;;4150465;28;19921;-58
2024/02/05 12:47:17;;;;;;;;;;;;;;;;;;4149972;28;20389;-58
2024/02/05 12:49:18;;;;;;;;;;;;;;;;;;4149977;28;19951;-58
2024/02/05 12:51:21;;;;;;;;;;;;;;;;;;4150226;28;19922;-58
2024/02/05 12:53:23;;;;;;;;;;;;;;;;;;4150023;28;19921;-58
2024/02/05 12:55:24;;;;;;;;;;;;;;;;;;4150400;28;19975;-58
2024/02/05 12:57:26;;;;;;;;;;;;;;;;;;4161806;28;19922;-57
2024/02/05 12:59:27;;;;;;;;;;;;;;;;;;4148797;28;19975;-57
2024/02/05 13:01:30;;;;;;;;;;;;;;;;;;4149243;28;19929;-58
2024/02/05 13:03:34;;;;;;;;;;;;;;;;;;4147252;28;19925;-58
2024/02/05 13:05:36;;;;;;;;;;;;;;;;;;4150228;28;19925;-58
2024/02/05 13:07:38;;;;;;;;;;;;;;;;;;4148773;28;19929;-57
2024/02/05 13:09:39;;;;;;;;;;;;;;;;;;4150194;28;19925;-58
2024/02/05 13:11:41;;;;;;;;;;;;;;;;;;4150173;28;19925;-58
2024/02/05 13:13:42;;;;;;;;;;;;;;;;;;4150135;28;20028;-58
2024/02/05 13:15:44;;;;;;;;;;;;;;;;;;4149828;28;20374;-58
2024/02/05 13:17:46;;;;;;;;;;;;;;;;;;4149781;28;19921;-58
2024/02/05 13:19:48;;;;;;;;;;;;;;;;;;4143671;28;19928;-58
2024/02/05 13:21:49;;;;;;;;;;;;;;;;;;4148693;28;19930;-58
2024/02/05 13:23:52;;;;;;;;;;;;;;;;;;4149704;28;20374;-58
2024/02/05 13:25:53;;;;;;;;;;;;;;;;;;4149383;28;19960;-58
2024/02/05 13:27:55;;;;;;;;;;;;;;;;;;4149063;28;19928;-58
2024/02/05 13:29:56;;;;;;;;;;;;;;;;;;4147268;28;19921;-57
2024/02/05 13:31:57;;;;;;;;;;;;;;;;;;4143171;28;20377;-58
2024/02/05 13:33:59;;;;;;;;;;;;;;;;;;4149387;28;20055;-58
2024/02/05 13:36:00;;;;;;;;;;;;;;;;;;4149342;28;20428;-58
2024/02/05 13:38:02;;;;;;;;;;;;;;;;;;4143026;28;20415;-58
2024/02/05 13:40:06;;;;;;;;;;;;;;;;;;4143385;28;20008;-57
2024/02/05 13:42:08;;;;;;;;;;;;;;;;;;4157410;28;19971;-57
2024/02/05 13:44:09;;;;;;;;;;;;;;;;;;4148270;28;19932;-61
2024/02/05 13:46:11;;;;;;;;;;;;;;;;;;4146479;28;20412;-61
2024/02/05 13:48:15;;;;;;;;;;;;;;;;;;4144327;28;20448;-61
2024/02/05 13:50:16;;;;;;;;;;;;;;;;;;4138291;28;20036;-61
2024/02/05 13:52:19;;;;;;;;;;;;;;;;;;4145663;28;19979;-60